Time;durP1;ratioP1;P1;durP2;ratioP2;P2;SDS_P1;SDS_P2;PMS_P1;PMS_P2;Temp;Humidity;BMP_temperature;BMP_pressure;BME280_temperature;BME280_humidity;BME280_pressure;Samples;Min_cycle;Max_cycle;Signal;HPM_P1;HPM_P2
2022/08/03 00:00:39;;;;;;;0.30;0.30;;;20.60;71.70;;;;;;4858358;29;20042;-74
2022/08/03 00:03:04;;;;;;;0.40;0.40;;;20.50;71.70;;;;;;4858177;29;20122;-74
2022/08/03 00:05:32;;;;;;;0.70;0.30;;;20.50;71.80;;;;;;4841154;29;20501;-75
2022/08/03 00:07:58;;;;;;;0.28;0.25;;;20.50;71.90;;;;;;4840713;29;20508;-75
2022/08/03 00:10:25;;;;;;;0.50;0.30;;;20.40;72.00;;;;;;4857932;29;20038;-74
2022/08/03 00:12:52;;;;;;;1.08;0.30;;;20.40;72.00;;;;;;4840068;29;20412;-74
2022/08/03 00:15:18;;;;;;;0.90;0.40;;;20.40;72.10;;;;;;4860421;29;20077;-75
2022/08/03 00:17:44;;;;;;;0.35;0.35;;;20.40;72.20;;;;;;4861637;29;20037;-75
2022/08/03 00:20:11;;;;;;;0.30;0.30;;;20.30;72.20;;;;;;4844411;29;20405;-75
2022/08/03 00:22:37;;;;;;;0.30;0.30;;;20.30;72.30;;;;;;4861441;29;20473;-75
2022/08/03 00:25:03;;;;;;;0.70;0.20;;;20.20;72.30;;;;;;4860701;29;20058;-75
2022/08/03 00:27:29;;;;;;;0.85;0.30;;;20.20;73.10;;;;;;4861378;29;20040;-74
2022/08/03 00:29:55;;;;;;;0.30;0.30;;;20.20;72.50;;;;;;4861264;29;20117;-75
2022/08/03 00:32:21;;;;;;;0.95;0.45;;;20.20;72.60;;;;;;4860844;29;20042;-75
2022/08/03 00:34:46;;;;;;;0.30;0.30;;;20.10;72.60;;;;;;4861334;29;20038;-75
2022/08/03 00:37:12;;;;;;;0.93;0.30;;;20.10;72.70;;;;;;4860752;29;20114;-75
2022/08/03 00:39:39;;;;;;;0.20;0.20;;;20.10;72.80;;;;;;4860980;29;20553;-75
2022/08/03 00:42:05;;;;;;;0.45;0.30;;;20.10;72.90;;;;;;4845067;29;20042;-75
2022/08/03 00:44:37;;;;;;;0.20;0.20;;;20.00;72.90;;;;;;4861145;29;20033;-75
2022/08/03 00:47:03;;;;;;;0.30;0.30;;;20.00;73.00;;;;;;4843884;29;20454;-75
2022/08/03 00:49:29;;;;;;;0.22;0.22;;;19.90;73.10;;;;;;4861341;29;20117;-75
2022/08/03 00:51:55;;;;;;;0.30;0.30;;;19.80;73.20;;;;;;4860736;29;20496;-75
2022/08/03 00:54:22;;;;;;;0.20;0.20;;;19.90;73.30;;;;;;4844215;29;20037;-75
2022/08/03 00:56:48;;;;;;;0.10;0.10;;;19.80;73.30;;;;;;4829136;29;20358;-75
2022/08/03 00:59:15;;;;;;;0.20;0.20;;;19.80;73.40;;;;;;4860476;29;20041;-75
2022/08/03 01:01:41;;;;;;;0.60;0.40;;;19.80;73.40;;;;;;4861047;29;20046;-75
2022/08/03 01:04:07;;;;;;;0.20;0.20;;;19.80;73.50;;;;;;4843978;29;20089;-75
2022/08/03 01:06:55;;;;;;;0.17;0.17;;;19.70;73.50;;;;;;4860399;29;20041;-75
2022/08/03 01:09:45;;;;;;;0.40;0.40;;;19.70;73.60;;;;;;4845916;29;20037;-75
2022/08/03 01:12:31;;;;;;;0.30;0.28;;;19.70;73.70;;;;;;4843592;29;20058;-75
2022/08/03 01:15:14;;;;;;;1.10;0.32;;;19.70;73.80;;;;;;4859427;29;20042;-75
2022/08/03 01:17:55;;;;;;;0.28;0.28;;;19.70;73.70;;;;;;4843615;29;20414;-75
2022/08/03 01:20:24;;;;;;;0.80;0.20;;;19.70;73.70;;;;;;4860142;29;20042;-75
2022/08/03 01:23:17;;;;;;;0.20;0.20;;;19.80;73.60;;;;;;4860369;29;20041;-75
2022/08/03 01:26:02;;;;;;;0.30;0.30;;;19.80;73.60;;;;;;4847308;29;20440;-75
2022/08/03 01:28:55;;;;;;;0.32;0.20;;;19.80;73.60;;;;;;4860219;29;20049;-75
2022/08/03 01:31:28;;;;;;;0.28;0.28;;;19.80;73.60;;;;;;4859242;29;20044;-75
2022/08/03 01:34:01;;;;;;;0.25;0.20;;;19.90;73.70;;;;;;4843346;29;20496;-75
2022/08/03 01:36:35;;;;;;;0.30;0.30;;;19.70;73.70;;;;;;4860026;29;20396;-75
2022/08/03 01:39:08;;;;;;;0.30;0.30;;;19.70;73.80;;;;;;4857239;29;20045;-75
2022/08/03 01:41:37;;;;;;;0.20;0.20;;;19.70;73.80;;;;;;4860513;29;20048;-75
2022/08/03 01:44:08;;;;;;;0.20;0.20;;;19.70;74.00;;;;;;4859983;29;20034;-75
2022/08/03 01:46:35;;;;;;;0.55;0.30;;;19.60;74.00;;;;;;4843155;29;20501;-75
2022/08/03 01:49:03;;;;;;;0.20;0.20;;;19.60;74.10;;;;;;4842966;29;20046;-75
2022/08/03 01:51:30;;;;;;;0.45;0.30;;;19.60;74.20;;;;;;4843038;29;20385;-74
2022/08/03 01:53:58;;;;;;;0.30;0.30;;;19.60;74.30;;;;;;4843499;29;20120;-74
2022/08/03 01:56:26;;;;;;;0.30;0.30;;;19.50;74.40;;;;;;4859821;29;20041;-74
2022/08/03 01:58:53;;;;;;;0.32;0.30;;;19.50;74.40;;;;;;4843692;29;20104;-74
2022/08/03 02:01:21;;;;;;;0.63;0.40;;;19.50;74.60;;;;;;4843525;29;20462;-74
2022/08/03 02:03:49;;;;;;;0.35;0.35;;;19.40;74.60;;;;;;4859460;29;20083;-74
2022/08/03 02:06:19;;;;;;;0.63;0.28;;;19.40;74.70;;;;;;4842861;29;20054;-74
2022/08/03 02:08:47;;;;;;;0.30;0.30;;;19.40;74.90;;;;;;4843304;29;20090;-75
2022/08/03 02:11:13;;;;;;;0.30;0.30;;;19.30;74.90;;;;;;4843163;29;20041;-74
2022/08/03 02:13:40;;;;;;;0.57;0.40;;;19.30;75.00;;;;;;4859331;29;20057;-74
2022/08/03 02:16:07;;;;;;;0.30;0.30;;;19.30;75.00;;;;;;4827583;29;20438;-74
2022/08/03 02:18:33;;;;;;;0.38;0.38;;;19.30;75.70;;;;;;4842902;29;20046;-74
2022/08/03 02:21:01;;;;;;;0.55;0.38;;;19.20;75.10;;;;;;4859105;29;20038;-75
2022/08/03 02:23:27;;;;;;;0.25;0.25;;;19.20;75.30;;;;;;4859214;29;20037;-74
2022/08/03 02:25:57;;;;;;;0.43;0.35;;;19.20;75.30;;;;;;4843081;29;20080;-75
2022/08/03 02:28:30;;;;;;;0.30;0.30;;;19.20;75.30;;;;;;4858147;29;20038;-74
2022/08/03 02:30:59;;;;;;;0.60;0.40;;;19.10;75.50;;;;;;4842467;29;20052;-74
2022/08/03 02:33:35;;;;;;;0.20;0.20;;;19.10;75.50;;;;;;4842624;29;20037;-74
2022/08/03 02:36:01;;;;;;;0.30;0.30;;;19.10;75.60;;;;;;4859062;29;20187;-74
2022/08/03 02:38:32;;;;;;;0.40;0.40;;;19.10;75.60;;;;;;4841479;29;20049;-74
2022/08/03 02:40:59;;;;;;;0.20;0.20;;;19.10;75.70;;;;;;4858953;29;20038;-74
2022/08/03 02:43:28;;;;;;;0.40;0.40;;;19.00;75.70;;;;;;4826511;29;20113;-74
2022/08/03 02:45:54;;;;;;;0.30;0.30;;;19.00;75.70;;;;;;4842970;29;20045;-74
2022/08/03 02:48:24;;;;;;;0.20;0.20;;;19.00;75.80;;;;;;4858898;29;20038;-74
2022/08/03 02:50:55;;;;;;;0.47;0.30;;;18.90;75.90;;;;;;4842260;29;20461;-75
2022/08/03 02:53:23;;;;;;;0.35;0.30;;;18.90;76.00;;;;;;4842645;29;20052;-75
2022/08/03 02:55:49;;;;;;;1.02;0.50;;;18.90;76.10;;;;;;4858864;29;20042;-74
2022/08/03 02:58:20;;;;;;;0.32;0.30;;;18.90;76.10;;;;;;4858918;29;20045;-74
2022/08/03 03:00:46;;;;;;;0.30;0.30;;;18.90;76.20;;;;;;4841145;29;20501;-74
2022/08/03 03:03:13;;;;;;;1.23;0.50;;;18.80;76.20;;;;;;4858789;29;20481;-74
2022/08/03 03:05:40;;;;;;;0.30;0.30;;;18.80;76.30;;;;;;4859032;29;20129;-74
2022/08/03 03:08:07;;;;;;;0.73;0.38;;;18.80;76.40;;;;;;4859069;29;20041;-74
2022/08/03 03:10:33;;;;;;;0.40;0.40;;;18.80;76.50;;;;;;4858881;29;20098;-74
2022/08/03 03:13:00;;;;;;;0.43;0.22;;;18.80;76.50;;;;;;4858697;29;20046;-74
2022/08/03 03:15:28;;;;;;;0.22;0.22;;;18.70;76.50;;;;;;4858984;29;20065;-74
2022/08/03 03:17:55;;;;;;;0.55;0.30;;;18.70;76.60;;;;;;4842084;29;20136;-74
2022/08/03 03:20:22;;;;;;;0.35;0.35;;;18.70;76.70;;;;;;4858788;29;20088;-74
2022/08/03 03:22:49;;;;;;;0.40;0.40;;;18.70;76.70;;;;;;4858930;29;20049;-74
2022/08/03 03:25:16;;;;;;;0.75;0.40;;;18.60;76.80;;;;;;4858746;29;20052;-74
2022/08/03 03:27:42;;;;;;;0.30;0.30;;;18.60;76.80;;;;;;4858954;29;20030;-74
2022/08/03 03:30:08;;;;;;;0.90;0.57;;;18.60;76.90;;;;;;4858725;29;20041;-75
2022/08/03 03:32:35;;;;;;;0.55;0.30;;;18.60;76.90;;;;;;4858512;29;20049;-74
2022/08/03 03:35:03;;;;;;;0.50;0.50;;;18.60;77.00;;;;;;4858277;29;20071;-75
2022/08/03 03:37:29;;;;;;;0.45;0.40;;;18.50;77.00;;;;;;4842105;29;20049;-75
2022/08/03 03:39:55;;;;;;;0.32;0.32;;;18.60;77.00;;;;;;4841594;29;20046;-74
2022/08/03 03:42:21;;;;;;;0.32;0.30;;;18.60;77.00;;;;;;4858436;29;20388;-74
2022/08/03 03:44:47;;;;;;;0.30;0.30;;;18.60;77.10;;;;;;4841175;29;20393;-74
2022/08/03 03:47:13;;;;;;;1.73;0.22;;;18.50;77.10;;;;;;4858838;29;20103;-74
2022/08/03 03:49:41;;;;;;;1.00;0.40;;;18.50;77.10;;;;;;4860898;29;20461;-75
2022/08/03 03:52:07;;;;;;;0.47;0.40;;;18.50;77.20;;;;;;4845595;29;20453;-74
2022/08/03 03:54:42;;;;;;;0.32;0.32;;;18.50;77.30;;;;;;4861553;29;20064;-74
2022/08/03 03:57:10;;;;;;;0.40;0.40;;;18.50;77.40;;;;;;4844804;29;20041;-74
2022/08/03 03:59:40;;;;;;;0.30;0.30;;;18.50;77.40;;;;;;4861468;29;20124;-75
2022/08/03 04:02:07;;;;;;;0.45;0.45;;;18.40;78.00;;;;;;4861896;29;20090;-74
2022/08/03 04:12:38;;;;;;;0.30;0.30;;;18.40;77.50;;;;;;4860452;29;20048;-74
2022/08/03 04:15:06;;;;;;;0.20;0.20;;;18.30;77.50;;;;;;4845382;29;20053;-74
2022/08/03 04:17:32;;;;;;;0.30;0.30;;;18.50;77.60;;;;;;4844837;29;20042;-74
2022/08/03 04:20:00;;;;;;;0.20;0.20;;;18.40;77.60;;;;;;4860936;29;20048;-74
2022/08/03 04:22:31;;;;;;;0.77;0.50;;;18.30;77.60;;;;;;4829264;29;20489;-78
2022/08/03 04:25:09;;;;;;;0.30;0.30;;;18.40;77.70;;;;;;4861280;29;20049;-75
2022/08/03 04:27:39;;;;;;;0.88;0.40;;;18.40;77.70;;;;;;4861693;29;20030;-75
2022/08/03 04:30:07;;;;;;;0.57;0.38;;;18.50;77.70;;;;;;4861235;29;20038;-74
2022/08/03 04:32:35;;;;;;;0.38;0.38;;;18.50;77.70;;;;;;4861728;29;20460;-75
2022/08/03 04:35:01;;;;;;;0.50;0.50;;;18.40;77.60;;;;;;4829879;29;20050;-74
2022/08/03 04:37:46;;;;;;;0.52;0.43;;;18.70;77.70;;;;;;4844323;29;20863;-75
2022/08/03 04:40:18;;;;;;;0.40;0.40;;;18.70;77.70;;;;;;4861374;29;20029;-75
2022/08/03 04:42:45;;;;;;;0.40;0.40;;;18.80;77.50;;;;;;4843996;29;20037;-74
2022/08/03 04:45:12;;;;;;;1.55;0.60;;;18.80;77.40;;;;;;4860688;29;20050;-75
2022/08/03 04:47:39;;;;;;;0.57;0.57;;;18.80;77.30;;;;;;4861729;29;20116;-74
2022/08/03 04:50:06;;;;;;;1.48;0.50;;;18.90;77.30;;;;;;4859505;29;20469;-74
2022/08/03 04:52:33;;;;;;;0.60;0.60;;;19.00;77.20;;;;;;4861497;29;20093;-74
2022/08/03 04:54:59;;;;;;;0.85;0.52;;;19.00;77.10;;;;;;4860786;29;20911;-75
2022/08/03 04:57:25;;;;;;;0.45;0.45;;;19.10;77.00;;;;;;4843947;29;20140;-75
2022/08/03 04:59:53;;;;;;;0.77;0.65;;;19.20;77.00;;;;;;4843802;29;20112;-74
2022/08/03 05:02:20;;;;;;;0.73;0.52;;;19.20;77.00;;;;;;4861133;29;20042;-74
2022/08/03 05:04:46;;;;;;;1.27;0.88;;;19.30;76.90;;;;;;4844145;29;20042;-74
2022/08/03 05:07:12;;;;;;;0.95;0.80;;;19.40;76.90;;;;;;4860771;29;20072;-74
2022/08/03 05:09:38;;;;;;;0.82;0.60;;;19.40;76.90;;;;;;4860892;29;20098;-74
2022/08/03 05:12:05;;;;;;;0.77;0.70;;;19.40;76.90;;;;;;4860648;29;20046;-75
2022/08/03 05:14:32;;;;;;;0.50;0.50;;;19.40;76.90;;;;;;4844686;29;20049;-74
2022/08/03 05:16:58;;;;;;;1.13;0.57;;;19.50;77.00;;;;;;4844330;29;20045;-75
2022/08/03 05:19:24;;;;;;;0.65;0.57;;;19.50;76.90;;;;;;4843764;29;20042;-74
2022/08/03 05:21:50;;;;;;;1.30;0.60;;;19.60;77.00;;;;;;4843912;29;20410;-74
2022/08/03 05:24:16;;;;;;;0.98;0.65;;;19.60;77.00;;;;;;4844408;29;20109;-74
2022/08/03 05:26:41;;;;;;;0.80;0.70;;;19.60;77.00;;;;;;4861033;29;20510;-75
2022/08/03 05:29:07;;;;;;;0.90;0.60;;;19.60;77.00;;;;;;4860427;29;20025;-74
2022/08/03 05:31:33;;;;;;;0.80;0.63;;;19.60;77.00;;;;;;4860554;29;20038;-75
2022/08/03 05:33:58;;;;;;;0.82;0.43;;;19.70;77.70;;;;;;4860532;29;20033;-75
2022/08/03 05:36:24;;;;;;;0.55;0.47;;;19.80;77.10;;;;;;4843842;29;20112;-75
2022/08/03 05:38:50;;;;;;;1.10;0.55;;;19.80;77.10;;;;;;4843694;29;20037;-76
2022/08/03 05:41:16;;;;;;;0.50;0.50;;;19.80;77.10;;;;;;4860285;29;20041;-76
2022/08/03 05:43:42;;;;;;;2.58;0.70;;;19.80;77.00;;;;;;4844106;29;20041;-75
2022/08/03 05:46:07;;;;;;;0.68;0.57;;;19.80;77.10;;;;;;4859934;29;20053;-75
2022/08/03 05:48:33;;;;;;;1.33;0.75;;;19.80;77.10;;;;;;4843763;29;20046;-74
2022/08/03 05:50:59;;;;;;;0.55;0.40;;;19.90;77.10;;;;;;4860421;29;20094;-74
2022/08/03 05:53:25;;;;;;;1.00;0.52;;;19.90;77.10;;;;;;4860209;29;20040;-74
2022/08/03 05:55:51;;;;;;;2.03;0.70;;;19.90;77.10;;;;;;4860219;29;20074;-74
2022/08/03 05:58:16;;;;;;;1.77;0.82;;;20.00;77.10;;;;;;4860017;29;20038;-75
2022/08/03 06:00:42;;;;;;;1.10;0.65;;;20.00;77.10;;;;;;4859991;29;20041;-74
2022/08/03 06:03:08;;;;;;;0.75;0.60;;;20.00;77.00;;;;;;4860105;29;20105;-75
2022/08/03 06:05:35;;;;;;;1.27;0.80;;;20.10;77.00;;;;;;4843151;29;20137;-75
2022/08/03 06:08:02;;;;;;;0.73;0.50;;;20.10;77.00;;;;;;4860280;29;20109;-74
2022/08/03 06:10:28;;;;;;;0.93;0.73;;;20.20;76.90;;;;;;4860231;29;20078;-74
2022/08/03 06:12:53;;;;;;;1.63;0.77;;;20.20;76.80;;;;;;4858901;29;20076;-74
2022/08/03 06:15:19;;;;;;;0.60;0.52;;;20.20;76.70;;;;;;4860232;29;20048;-74
2022/08/03 06:17:48;;;;;;;0.60;0.50;;;20.30;77.30;;;;;;4827907;29;20129;-74
2022/08/03 06:20:18;;;;;;;1.00;0.70;;;20.30;76.50;;;;;;4859777;29;20392;-74
2022/08/03 06:22:45;;;;;;;0.50;0.50;;;20.40;76.50;;;;;;4859340;29;20135;-74
2022/08/03 06:25:11;;;;;;;0.80;0.57;;;20.50;76.40;;;;;;4842835;29;20045;-74
2022/08/03 06:27:38;;;;;;;0.40;0.40;;;20.50;76.30;;;;;;4843434;29;20036;-74
2022/08/03 06:30:07;;;;;;;1.45;0.70;;;20.60;76.30;;;;;;4843078;29;20041;-74
2022/08/03 06:32:33;;;;;;;1.75;0.77;;;20.60;76.10;;;;;;4841425;29;20034;-75
2022/08/03 06:34:59;;;;;;;1.23;0.70;;;20.60;76.10;;;;;;4859827;29;20042;-75
2022/08/03 06:37:26;;;;;;;1.40;0.80;;;20.70;76.20;;;;;;4859952;29;20029;-74
2022/08/03 06:39:53;;;;;;;2.25;1.00;;;20.80;76.20;;;;;;4859345;29;20041;-75
2022/08/03 06:42:18;;;;;;;0.70;0.70;;;20.80;76.10;;;;;;4827275;29;20034;-74
2022/08/03 06:44:44;;;;;;;1.35;0.75;;;20.90;76.00;;;;;;4827979;29;20044;-74
2022/08/03 06:47:10;;;;;;;0.88;0.63;;;20.90;75.80;;;;;;4859894;29;20060;-73
2022/08/03 06:49:36;;;;;;;1.42;0.82;;;21.00;75.80;;;;;;4859792;29;20444;-72
2022/08/03 06:52:02;;;;;;;1.77;0.70;;;21.00;75.70;;;;;;4859850;29;20038;-73
2022/08/03 06:54:28;;;;;;;1.95;0.75;;;21.10;75.50;;;;;;4859402;29;20106;-73
2022/08/03 06:56:53;;;;;;;0.80;0.60;;;21.10;75.40;;;;;;4859183;29;20489;-74
2022/08/03 06:59:19;;;;;;;2.17;0.80;;;21.20;75.40;;;;;;4859176;29;20098;-72
2022/08/03 07:01:45;;;;;;;2.75;0.63;;;21.20;75.40;;;;;;4859467;29;20485;-72
2022/08/03 07:04:11;;;;;;;0.93;0.60;;;21.30;75.40;;;;;;4859086;29;20397;-72
2022/08/03 07:06:37;;;;;;;0.60;0.57;;;21.30;75.20;;;;;;4842163;29;20053;-72
2022/08/03 07:09:04;;;;;;;0.45;0.45;;;21.40;75.20;;;;;;4859153;29;20040;-72
2022/08/03 07:11:30;;;;;;;2.50;0.60;;;21.40;75.10;;;;;;4859656;29;20104;-72
2022/08/03 07:13:55;;;;;;;1.02;0.55;;;21.50;75.00;;;;;;4842174;29;20160;-71
2022/08/03 07:16:21;;;;;;;1.15;0.80;;;21.50;74.80;;;;;;4858782;29;20042;-74
2022/08/03 07:18:53;;;;;;;0.88;0.77;;;21.70;74.70;;;;;;4841682;29;20199;-73
2022/08/03 07:21:18;;;;;;;1.92;0.90;;;21.70;74.60;;;;;;4838021;29;20109;-73
2022/08/03 07:23:44;;;;;;;2.53;0.85;;;21.80;74.40;;;;;;4822607;29;20529;-74
2022/08/03 07:26:10;;;;;;;1.58;0.80;;;21.90;74.40;;;;;;4838073;29;20087;-72
2022/08/03 07:28:36;;;;;;;1.15;0.57;;;21.90;74.20;;;;;;4822800;29;20091;-72
2022/08/03 07:31:02;;;;;;;1.58;0.63;;;22.00;74.00;;;;;;4807437;29;20124;-72
2022/08/03 07:33:27;;;;;;;1.08;0.60;;;22.10;73.90;;;;;;4807652;29;20510;-73
2022/08/03 07:35:53;;;;;;;2.45;0.80;;;22.30;73.70;;;;;;4838296;29;20497;-74
2022/08/03 07:38:19;;;;;;;0.98;0.60;;;22.40;73.50;;;;;;4838183;29;20046;-74
2022/08/03 07:40:45;;;;;;;3.00;0.80;;;22.50;73.40;;;;;;4837956;29;20050;-73
2022/08/03 07:43:11;;;;;;;0.60;0.50;;;22.60;73.20;;;;;;4838300;29;20125;-73
2022/08/03 07:45:36;;;;;;;0.65;0.50;;;22.70;73.00;;;;;;4847003;29;20137;-73
2022/08/03 07:48:02;;;;;;;0.73;0.50;;;22.80;73.00;;;;;;4858388;29;20037;-73
2022/08/03 07:50:28;;;;;;;1.75;0.65;;;22.90;72.80;;;;;;4858550;29;20488;-72
2022/08/03 07:52:54;;;;;;;1.23;0.50;;;23.00;72.60;;;;;;4858527;29;20553;-73
2022/08/03 07:55:24;;;;;;;0.55;0.40;;;23.20;72.30;;;;;;4858950;29;20382;-72
2022/08/03 07:58:05;;;;;;;1.80;0.70;;;23.20;72.10;;;;;;4841653;29;20510;-73
2022/08/03 08:00:31;;;;;;;1.58;0.52;;;23.30;71.90;;;;;;4857862;29;20101;-74
2022/08/03 08:02:57;;;;;;;2.97;0.80;;;23.30;71.80;;;;;;4841535;29;20041;-72
2022/08/03 08:05:23;;;;;;;2.22;0.73;;;23.60;71.70;;;;;;4858075;29;20049;-73
2022/08/03 08:07:49;;;;;;;1.30;0.60;;;23.70;71.40;;;;;;4858343;29;20048;-72
2022/08/03 08:10:15;;;;;;;1.95;0.90;;;23.70;71.40;;;;;;4841136;29;20491;-75
2022/08/03 08:12:41;;;;;;;2.33;0.95;;;23.80;71.30;;;;;;4858184;29;20128;-73
2022/08/03 08:15:07;;;;;;;2.72;0.90;;;23.80;71.20;;;;;;4858546;29;20037;-72
2022/08/03 08:17:42;;;;;;;1.08;0.73;;;23.90;71.20;;;;;;4841769;29;20136;-72
2022/08/03 08:20:10;;;;;;;0.98;0.63;;;24.00;71.00;;;;;;4840617;29;20053;-71
2022/08/03 08:22:35;;;;;;;1.52;0.65;;;24.10;71.00;;;;;;4858567;29;20045;-72
2022/08/03 08:25:02;;;;;;;0.95;0.70;;;24.20;71.00;;;;;;4840066;29;20045;-72
2022/08/03 08:27:28;;;;;;;2.20;0.70;;;24.40;70.80;;;;;;4841270;29;20190;-72
2022/08/03 08:29:54;;;;;;;2.55;0.80;;;24.50;70.40;;;;;;4858154;29;20120;-72
2022/08/03 08:32:19;;;;;;;2.70;0.88;;;24.70;70.20;;;;;;4858393;29;20038;-74
2022/08/03 08:34:45;;;;;;;2.38;0.90;;;24.70;70.00;;;;;;4858539;29;20080;-75
2022/08/03 08:37:11;;;;;;;2.67;1.00;;;24.90;69.80;;;;;;4844415;29;20029;-73
2022/08/03 08:39:37;;;;;;;1.75;0.82;;;25.00;70.30;;;;;;4861035;29;20488;-73
2022/08/03 08:42:03;;;;;;;0.98;0.70;;;25.00;69.60;;;;;;4844010;29;20042;-72
2022/08/03 08:44:29;;;;;;;1.30;0.80;;;25.00;69.70;;;;;;4861650;29;20040;-72
2022/08/03 08:46:56;;;;;;;0.93;0.70;;;25.20;69.60;;;;;;4860668;29;20504;-72
2022/08/03 08:49:26;;;;;;;2.55;0.85;;;25.30;69.20;;;;;;4860996;29;20049;-72
2022/08/03 08:51:55;;;;;;;2.28;0.88;;;25.60;69.00;;;;;;4844309;29;20516;-73
2022/08/03 08:54:22;;;;;;;1.40;0.75;;;25.70;68.50;;;;;;4860823;29;20048;-73
2022/08/03 08:56:52;;;;;;;2.05;0.68;;;25.80;68.30;;;;;;4860861;29;20080;-72
2022/08/03 08:59:19;;;;;;;0.90;0.50;;;25.90;68.30;;;;;;4860941;29;20164;-73
2022/08/03 09:01:45;;;;;;;1.33;0.70;;;26.10;68.30;;;;;;4844367;29;20033;-71
2022/08/03 09:04:11;;;;;;;2.67;0.80;;;26.20;68.00;;;;;;4860807;29;20045;-73
2022/08/03 09:06:36;;;;;;;1.73;0.80;;;26.30;67.80;;;;;;4861084;29;20358;-71
2022/08/03 09:09:02;;;;;;;1.30;0.70;;;26.40;67.70;;;;;;4860866;29;20029;-72
2022/08/03 09:11:28;;;;;;;1.50;0.70;;;26.50;67.60;;;;;;4860745;29;20485;-73
2022/08/03 09:14:00;;;;;;;2.45;1.05;;;26.50;67.30;;;;;;4860584;29;20029;-73
2022/08/03 09:16:37;;;;;;;2.70;1.00;;;26.60;67.10;;;;;;4860499;29;20622;-73
2022/08/03 09:19:20;;;;;;;2.03;0.80;;;26.60;67.00;;;;;;4842741;29;20049;-73
2022/08/03 09:22:09;;;;;;;2.47;0.70;;;26.60;67.10;;;;;;4843627;29;20062;-74
2022/08/03 09:25:06;;;;;;;3.17;0.90;;;26.80;67.00;;;;;;4846367;29;20056;-73
2022/08/03 09:27:50;;;;;;;1.27;0.60;;;26.90;66.60;;;;;;4860484;29;20058;-72
2022/08/03 09:30:34;;;;;;;1.58;0.60;;;27.00;67.20;;;;;;4858246;29;20065;-72
2022/08/03 09:33:05;;;;;;;1.88;0.80;;;27.20;66.40;;;;;;4820060;29;20054;-72
2022/08/03 09:35:32;;;;;;;3.88;0.80;;;27.20;66.10;;;;;;4791001;29;20529;-72
2022/08/03 09:38:15;;;;;;;2.75;0.80;;;27.30;66.10;;;;;;4821842;29;20065;-72
2022/08/03 09:40:42;;;;;;;3.13;1.10;;;27.40;65.80;;;;;;4821809;29;20048;-73
2022/08/03 09:43:09;;;;;;;1.05;0.55;;;27.50;65.70;;;;;;4821988;29;20114;-72
2022/08/03 09:45:36;;;;;;;5.07;0.90;;;27.40;65.70;;;;;;4821897;29;20054;-72
2022/08/03 09:48:29;;;;;;;2.28;0.80;;;27.40;65.80;;;;;;4791109;29;20035;-74
2022/08/03 09:50:58;;;;;;;3.05;0.80;;;27.30;65.80;;;;;;4821506;29;20115;-73
2022/08/03 09:53:25;;;;;;;2.83;0.90;;;27.40;65.80;;;;;;4821765;29;20403;-75
2022/08/03 09:55:58;;;;;;;2.35;0.70;;;27.50;65.40;;;;;;4805986;29;20061;-73
2022/08/03 09:58:26;;;;;;;1.17;0.80;;;27.50;65.30;;;;;;4836787;29;20120;-74
2022/08/03 10:00:59;;;;;;;2.42;0.80;;;27.40;65.20;;;;;;4858390;29;20045;-73
2022/08/03 10:03:27;;;;;;;2.88;0.80;;;27.40;65.50;;;;;;4842121;29;20094;-73
2022/08/03 10:05:53;;;;;;;2.17;0.70;;;27.40;65.30;;;;;;4860302;29;20101;-72
2022/08/03 10:08:20;;;;;;;2.83;0.77;;;27.50;65.30;;;;;;4859890;29;20025;-74
2022/08/03 10:10:53;;;;;;;1.00;0.75;;;27.60;64.90;;;;;;4859893;29;20049;-73
2022/08/03 10:13:21;;;;;;;1.95;0.77;;;27.80;64.60;;;;;;4842937;29;20389;-73
2022/08/03 10:15:47;;;;;;;1.40;0.60;;;28.00;64.30;;;;;;4859635;29;20050;-71
2022/08/03 10:18:13;;;;;;;2.47;1.00;;;28.10;64.10;;;;;;4859401;29;20399;-73
2022/08/03 10:20:45;;;;;;;3.40;0.90;;;28.00;63.80;;;;;;4859805;29;20082;-73
2022/08/03 10:23:13;;;;;;;1.75;0.75;;;28.10;63.60;;;;;;4859672;29;20044;-73
2022/08/03 10:25:40;;;;;;;2.38;0.90;;;28.10;63.60;;;;;;4859474;29;20038;-74
2022/08/03 10:28:13;;;;;;;3.05;0.75;;;28.10;63.50;;;;;;4859618;29;20038;-72
2022/08/03 10:30:46;;;;;;;2.42;0.85;;;28.10;63.60;;;;;;4843098;29;20134;-72
2022/08/03 10:33:27;;;;;;;1.13;0.70;;;28.20;63.50;;;;;;4859638;29;20030;-73
2022/08/03 10:35:56;;;;;;;2.92;0.80;;;28.30;63.20;;;;;;4859612;29;20068;-73
2022/08/03 10:38:33;;;;;;;1.20;0.77;;;28.40;63.10;;;;;;4842571;29;20034;-73
2022/08/03 10:41:00;;;;;;;2.13;0.80;;;28.60;62.70;;;;;;4859714;29;20045;-73
2022/08/03 10:43:32;;;;;;;3.40;0.65;;;28.70;62.50;;;;;;4859627;29;20042;-73
2022/08/03 10:45:59;;;;;;;1.58;0.90;;;28.80;62.10;;;;;;4859794;29;20053;-73
2022/08/03 10:48:25;;;;;;;2.17;0.80;;;28.80;61.90;;;;;;4859539;29;20056;-74
2022/08/03 10:50:52;;;;;;;0.95;0.70;;;28.80;61.80;;;;;;4842674;29;20044;-72
2022/08/03 10:53:39;;;;;;;2.55;0.77;;;28.90;61.80;;;;;;4859268;29;20038;-72
2022/08/03 10:58:50;;;;;;;1.05;0.55;;;28.90;61.60;;;;;;4858556;29;20053;-72
2022/08/03 11:01:17;;;;;;;1.80;0.60;;;29.00;61.60;;;;;;4842393;29;20053;-73
2022/08/03 11:04:23;;;;;;;2.10;1.10;;;29.10;61.40;;;;;;4859237;29;20480;-73
2022/08/03 11:07:21;;;;;;;2.83;0.90;;;29.20;60.90;;;;;;4838189;29;20136;-73
2022/08/03 11:10:03;;;;;;;1.42;0.70;;;29.10;60.60;;;;;;4838235;29;20129;-72
2022/08/03 11:12:32;;;;;;;1.50;0.65;;;29.20;60.60;;;;;;4783917;29;20043;-72
2022/08/03 11:15:03;;;;;;;2.22;0.70;;;29.40;60.50;;;;;;4784121;29;20058;-73
2022/08/03 11:17:31;;;;;;;;;;;29.40;60.20;;;;;;4785025;29;20128;-72
2022/08/03 11:19:57;;;;;;;1.92;0.60;;;29.40;60.20;;;;;;4783507;29;20422;-73
2022/08/03 11:22:23;;;;;;;0.82;0.50;;;29.40;60.10;;;;;;4768797;29;20066;-73
2022/08/03 11:24:57;;;;;;;1.92;0.60;;;29.40;60.30;;;;;;4768730;29;20061;-72
2022/08/03 11:27:27;;;;;;;1.25;0.52;;;29.50;59.90;;;;;;4784092;29;20108;-73
2022/08/03 11:29:53;;;;;;;;;;;29.70;59.70;;;;;;4784646;29;20042;-72
2022/08/03 11:32:53;;;;;;;1.88;0.60;;;29.70;59.60;;;;;;4787382;29;19909;-72
2022/08/03 11:35:22;;;;;;;3.15;0.80;;;29.80;59.40;;;;;;4801932;29;20041;-72
2022/08/03 11:38:06;;;;;;;2.22;0.70;;;29.80;59.20;;;;;;4816580;29;20041;-74
2022/08/03 11:40:38;;;;;;;2.88;0.73;;;29.80;59.10;;;;;;4857388;29;20034;-72
2022/08/03 11:43:29;;;;;;;0.68;0.47;;;30.00;59.10;;;;;;4827595;29;20489;-72
2022/08/03 11:46:00;;;;;;;0.55;0.50;;;30.00;58.90;;;;;;4856481;29;20053;-72
2022/08/03 11:48:33;;;;;;;2.10;0.80;;;30.00;58.60;;;;;;4827621;29;20041;-73
2022/08/03 11:51:00;;;;;;;1.30;0.57;;;30.20;58.60;;;;;;4827327;29;20045;-75
2022/08/03 11:53:26;;;;;;;0.85;0.50;;;30.30;58.30;;;;;;4841894;29;20076;-74
2022/08/03 11:55:52;;;;;;;2.28;0.90;;;30.50;58.10;;;;;;4842347;29;20048;-74
2022/08/03 11:58:22;;;;;;;1.73;0.70;;;30.50;57.70;;;;;;4858884;29;20037;-74
2022/08/03 12:00:49;;;;;;;1.45;0.60;;;30.50;57.50;;;;;;4858399;29;20041;-74
2022/08/03 12:03:17;;;;;;;1.52;0.63;;;30.50;57.40;;;;;;4858188;29;20056;-75
2022/08/03 12:05:48;;;;;;;1.27;0.73;;;30.50;57.40;;;;;;4858313;29;20080;-74
2022/08/03 12:08:18;;;;;;;2.50;0.60;;;30.50;57.40;;;;;;4858209;29;20261;-74
2022/08/03 12:10:48;;;;;;;2.10;0.80;;;30.50;57.30;;;;;;4842742;29;20397;-73
2022/08/03 12:13:14;;;;;;;0.95;0.60;;;30.40;57.10;;;;;;4861308;29;20517;-74
2022/08/03 12:15:40;;;;;;;1.48;0.47;;;30.40;57.10;;;;;;4861708;29;20040;-75
2022/08/03 12:18:15;;;;;;;2.72;0.65;;;30.40;57.10;;;;;;4844917;29;20038;-74
2022/08/03 12:20:41;;;;;;;1.50;0.60;;;30.50;57.00;;;;;;4861714;29;20552;-74
2022/08/03 12:23:08;;;;;;;1.90;0.82;;;30.60;56.90;;;;;;4861321;29;20045;-75
2022/08/03 12:25:36;;;;;;;3.42;0.80;;;30.60;56.70;;;;;;4864206;29;20052;-75
2022/08/03 12:34:44;;;;;;;2.45;0.90;;;30.60;56.20;;;;;;4785947;29;20086;-76
2022/08/03 12:37:10;;;;;;;1.40;0.68;;;30.60;56.10;;;;;;4788424;30;20079;-76
2022/08/03 12:39:36;;;;;;;2.30;0.80;;;30.60;56.10;;;;;;4789325;29;20074;-76
2022/08/03 12:42:02;;;;;;;1.63;0.80;;;30.60;56.00;;;;;;4790864;30;20047;-73
2022/08/03 12:44:31;;;;;;;1.45;0.70;;;30.60;56.20;;;;;;4786405;30;20043;-74
2022/08/03 12:46:57;;;;;;;1.13;0.60;;;30.60;56.10;;;;;;4756888;29;20055;-74
2022/08/03 12:49:50;;;;;;;1.35;0.47;;;30.50;56.00;;;;;;4778122;29;20050;-76
2022/08/03 13:02:27;;;;;;;1.70;0.50;;;30.60;55.60;;;;;;4749249;30;20118;-74
2022/08/03 13:36:43;;;;;;;2.30;0.50;;;30.60;55.30;;;;;;4675022;30;20062;-73
2022/08/03 13:39:09;;;;;;;0.52;0.32;;;30.60;55.20;;;;;;4697219;30;20042;-74
2022/08/03 13:41:35;;;;;;;0.95;0.50;;;30.50;55.20;;;;;;4668431;30;20125;-75
2022/08/03 13:44:01;;;;;;;0.38;0.38;;;30.40;55.30;;;;;;4683343;30;20160;-75
2022/08/03 13:46:27;;;;;;;0.40;0.40;;;30.30;55.30;;;;;;4697729;30;20406;-74
2022/08/03 13:48:53;;;;;;;0.30;0.30;;;30.40;55.40;;;;;;4670169;30;20599;-75
2022/08/03 13:51:19;;;;;;;0.75;0.70;;;30.30;55.40;;;;;;4682423;30;20084;-75
2022/08/03 13:53:45;;;;;;;0.63;0.40;;;30.40;55.30;;;;;;4682508;30;20513;-73
2022/08/03 13:56:11;;;;;;;0.63;0.60;;;30.40;55.20;;;;;;4682433;30;20056;-75